Time;durP1;ratioP1;P1;durP2;ratioP2;P2;SDS_P1;SDS_P2;PMS_P1;PMS_P2;Temp;Humidity;BMP_temperature;BMP_pressure;BME280_temperature;BME280_humidity;BME280_pressure;Samples;Min_cycle;Max_cycle;Signal;HPM_P1;HPM_P2
2023/06/29 00:01:55;;;;;;;22.80;18.60;;;;;;;;;;5092258;28;20034;-68
2023/06/29 00:04:21;;;;;;;18.77;16.88;;;;;;;;;;5090855;28;20016;-67
2023/06/29 00:06:49;;;;;;;20.80;17.27;;;;;;;;;;5092230;28;20020;-68
2023/06/29 00:09:16;;;;;;;25.70;17.30;;;;;;;;;;5091639;28;20428;-67
2023/06/29 00:11:42;;;;;;;27.33;17.42;;;;;;;;;;5079704;28;20040;-67
2023/06/29 00:14:07;;;;;;;26.27;18.25;;;;;;;;;;5076483;28;20035;-67
2023/06/29 00:16:32;;;;;;;18.70;16.70;;;;;;;;;;5091127;28;20142;-67
2023/06/29 00:19:00;;;;;;;21.98;18.10;;;;;;;;;;5091534;28;20335;-67
2023/06/29 00:21:28;;;;;;;21.50;18.13;;;;;;;;;;5091266;28;20020;-67
2023/06/29 00:23:54;;;;;;;21.83;17.05;;;;;;;;;;5091547;28;20077;-68
2023/06/29 00:26:20;;;;;;;22.35;18.83;;;;;;;;;;5091346;28;20523;-67
2023/06/29 00:28:45;;;;;;;24.67;18.95;;;;;;;;;;5091658;28;20024;-67
2023/06/29 00:31:10;;;;;;;21.20;17.92;;;;;;;;;;5091840;28;20093;-67
2023/06/29 00:33:35;;;;;;;20.70;18.07;;;;;;;;;;5091876;28;20430;-67
2023/06/29 00:36:00;;;;;;;24.97;19.17;;;;;;;;;;5090826;28;20308;-68
2023/06/29 00:38:26;;;;;;;25.03;19.67;;;;;;;;;;5089447;28;20270;-68
2023/06/29 00:40:51;;;;;;;19.88;17.70;;;;;;;;;;5094257;28;20326;-67
2023/06/29 00:43:17;;;;;;;19.40;17.30;;;;;;;;;;5093310;28;20055;-67
2023/06/29 00:45:43;;;;;;;19.83;17.73;;;;;;;;;;5090712;28;20035;-67
2023/06/29 00:48:08;;;;;;;22.98;19.20;;;;;;;;;;5094632;28;20028;-67
2023/06/29 00:50:34;;;;;;;27.77;17.35;;;;;;;;;;5094717;28;20425;-67
2023/06/29 00:52:59;;;;;;;20.88;18.05;;;;;;;;;;5080625;28;20134;-67
2023/06/29 00:55:25;;;;;;;21.07;18.57;;;;;;;;;;5095200;28;20028;-67
2023/06/29 00:57:50;;;;;;;23.63;18.17;;;;;;;;;;5095174;28;20302;-67
2023/06/29 01:00:15;;;;;;;22.85;18.92;;;;;;;;;;5094173;28;20020;-67
2023/06/29 01:02:41;;;;;;;21.77;19.40;;;;;;;;;;5094829;28;20054;-67
2023/06/29 01:05:10;;;;;;;25.70;19.08;;;;;;;;;;5094450;28;20455;-67
2023/06/29 01:07:57;;;;;;;21.67;18.02;;;;;;;;;;5094892;28;20033;-67
2023/06/29 01:10:27;;;;;;;21.52;19.20;;;;;;;;;;5094544;28;20044;-67
2023/06/29 01:12:52;;;;;;;25.20;17.75;;;;;;;;;;5094698;28;20093;-68
2023/06/29 01:15:18;;;;;;;23.85;19.83;;;;;;;;;;5094219;28;20421;-67
2023/06/29 01:17:45;;;;;;;25.73;18.00;;;;;;;;;;5094545;28;20095;-68
2023/06/29 01:20:11;;;;;;;19.05;16.35;;;;;;;;;;5094065;28;20052;-67
2023/06/29 01:22:58;;;;;;;19.38;16.25;;;;;;;;;;5081754;28;20097;-68
2023/06/29 01:25:24;;;;;;;22.58;18.95;;;;;;;;;;5094359;28;20433;-67
2023/06/29 01:27:49;;;;;;;22.15;18.73;;;;;;;;;;5094312;28;20039;-67
2023/06/29 01:30:15;;;;;;;23.27;18.95;;;;;;;;;;5093829;28;20016;-67
2023/06/29 01:32:40;;;;;;;18.55;16.50;;;;;;;;;;5094953;28;20028;-67
2023/06/29 01:35:10;;;;;;;24.97;18.10;;;;;;;;;;5094486;28;20032;-67
2023/06/29 01:37:45;;;;;;;23.70;18.17;;;;;;;;;;5094337;28;20266;-67
2023/06/29 01:40:13;;;;;;;19.42;16.92;;;;;;;;;;5083321;28;20027;-67
2023/06/29 01:42:40;;;;;;;21.08;17.92;;;;;;;;;;5093638;28;20493;-67
2023/06/29 01:45:06;;;;;;;25.63;20.15;;;;;;;;;;5093370;28;20067;-67
2023/06/29 01:47:32;;;;;;;24.55;19.45;;;;;;;;;;5094063;28;20482;-67
2023/06/29 01:49:58;;;;;;;22.20;18.15;;;;;;;;;;5093830;28;20042;-67
2023/06/29 01:52:24;;;;;;;21.88;18.95;;;;;;;;;;5093392;28;20103;-67
2023/06/29 01:54:50;;;;;;;27.33;20.08;;;;;;;;;;5093795;28;20095;-66
2023/06/29 01:57:16;;;;;;;24.88;19.17;;;;;;;;;;5093589;28;20024;-68
2023/06/29 01:59:41;;;;;;;21.00;18.40;;;;;;;;;;5094067;28;20028;-68
2023/06/29 02:02:07;;;;;;;25.23;20.42;;;;;;;;;;5093913;28;20036;-67
2023/06/29 02:04:32;;;;;;;24.50;20.15;;;;;;;;;;5093565;28;20055;-67
2023/06/29 02:06:57;;;;;;;28.10;19.98;;;;;;;;;;5093297;28;20489;-67
2023/06/29 02:09:23;;;;;;;28.27;21.48;;;;;;;;;;5092488;28;20028;-67
2023/06/29 02:11:48;;;;;;;25.52;21.77;;;;;;;;;;5093720;28;20101;-67
2023/06/29 02:14:16;;;;;;;33.67;20.10;;;;;;;;;;5093319;28;20545;-67
2023/06/29 02:16:42;;;;;;;26.92;18.92;;;;;;;;;;5086812;28;20028;-67
2023/06/29 02:19:07;;;;;;;22.90;19.50;;;;;;;;;;5091786;28;20024;-67
2023/06/29 02:21:32;;;;;;;22.73;19.80;;;;;;;;;;5081735;28;20098;-67
2023/06/29 02:23:57;;;;;;;24.42;19.45;;;;;;;;;;5091912;28;20265;-67
2023/06/29 02:26:24;;;;;;;24.77;19.58;;;;;;;;;;5093280;28;20035;-67
2023/06/29 02:28:49;;;;;;;23.30;18.98;;;;;;;;;;5092682;28;20024;-67
2023/06/29 02:31:14;;;;;;;27.37;19.77;;;;;;;;;;5093463;28;20035;-67
2023/06/29 02:33:40;;;;;;;22.17;19.23;;;;;;;;;;5091702;28;20274;-67
2023/06/29 02:36:05;;;;;;;22.73;20.03;;;;;;;;;;5093668;28;20830;-66
2023/06/29 02:38:30;;;;;;;25.50;20.00;;;;;;;;;;5092892;28;20764;-66
2023/06/29 02:40:55;;;;;;;24.23;18.87;;;;;;;;;;5074698;28;20057;-66
2023/06/29 02:43:21;;;;;;;21.77;19.20;;;;;;;;;;5090605;28;20261;-66
2023/06/29 02:45:46;;;;;;;29.55;20.75;;;;;;;;;;5088575;28;20278;-66
2023/06/29 02:48:11;;;;;;;25.13;20.33;;;;;;;;;;5093502;28;20043;-67
2023/06/29 02:50:36;;;;;;;27.17;20.00;;;;;;;;;;5092474;28;20772;-67
2023/06/29 02:53:02;;;;;;;25.60;19.43;;;;;;;;;;5093191;28;20270;-66
2023/06/29 02:55:29;;;;;;;23.90;20.70;;;;;;;;;;5093221;28;20324;-67
2023/06/29 02:57:55;;;;;;;23.10;18.75;;;;;;;;;;5079904;28;20038;-67
2023/06/29 03:00:20;;;;;;;26.03;20.47;;;;;;;;;;5092701;28;20413;-67
2023/06/29 03:02:45;;;;;;;24.52;19.17;;;;;;;;;;5079427;28;20285;-67
2023/06/29 03:05:10;;;;;;;23.38;20.00;;;;;;;;;;5092169;28;20093;-67
2023/06/29 03:07:36;;;;;;;23.52;19.65;;;;;;;;;;5092824;28;20081;-67
2023/06/29 03:10:01;;;;;;;26.13;20.43;;;;;;;;;;5091083;28;20495;-67
2023/06/29 03:12:26;;;;;;;22.08;19.25;;;;;;;;;;5092209;28;20262;-67
2023/06/29 03:14:51;;;;;;;21.63;18.65;;;;;;;;;;5092626;28;20382;-67
2023/06/29 03:17:17;;;;;;;24.13;20.05;;;;;;;;;;5091693;28;20024;-67
2023/06/29 03:19:42;;;;;;;25.00;19.67;;;;;;;;;;5092679;28;20020;-67
2023/06/29 03:22:07;;;;;;;27.42;20.15;;;;;;;;;;5092441;28;20055;-67
2023/06/29 03:24:33;;;;;;;26.37;20.53;;;;;;;;;;5092675;28;20450;-68
2023/06/29 03:26:58;;;;;;;24.37;19.87;;;;;;;;;;5092179;28;20783;-68
2023/06/29 03:29:23;;;;;;;24.85;19.45;;;;;;;;;;5082778;28;20283;-68
2023/06/29 03:31:48;;;;;;;28.08;20.02;;;;;;;;;;5091430;28;20028;-66
2023/06/29 03:34:14;;;;;;;26.10;19.73;;;;;;;;;;5092771;28;20141;-65
2023/06/29 03:36:39;;;;;;;28.02;21.23;;;;;;;;;;5088478;28;20271;-67
2023/06/29 03:39:05;;;;;;;25.03;20.20;;;;;;;;;;5082400;28;20047;-68
2023/06/29 03:41:30;;;;;;;31.48;24.50;;;;;;;;;;5086051;28;20281;-68
2023/06/29 03:43:55;;;;;;;30.83;25.10;;;;;;;;;;5083454;28;20062;-68
2023/06/29 03:46:21;;;;;;;25.98;21.08;;;;;;;;;;5092420;28;20082;-67
2023/06/29 03:48:46;;;;;;;28.17;22.92;;;;;;;;;;5092442;28;20549;-67
2023/06/29 03:51:11;;;;;;;24.73;19.93;;;;;;;;;;5091714;28;20073;-67
2023/06/29 03:53:36;;;;;;;29.98;22.20;;;;;;;;;;5092331;28;20282;-68
2023/06/29 03:56:02;;;;;;;27.30;21.67;;;;;;;;;;5091645;28;20032;-67
2023/06/29 03:58:27;;;;;;;31.00;21.23;;;;;;;;;;5091919;28;20020;-67
2023/06/29 04:00:52;;;;;;;27.03;21.90;;;;;;;;;;5091244;28;20020;-67
2023/06/29 04:03:17;;;;;;;30.05;21.23;;;;;;;;;;5092307;28;20269;-67
2023/06/29 04:05:43;;;;;;;27.07;23.30;;;;;;;;;;5091586;28;20385;-68
2023/06/29 04:08:08;;;;;;;26.40;22.67;;;;;;;;;;5092071;28;20289;-67
2023/06/29 04:10:34;;;;;;;31.33;22.77;;;;;;;;;;5091819;28;20467;-67
2023/06/29 04:12:59;;;;;;;28.27;22.60;;;;;;;;;;5091376;28;20024;-67
2023/06/29 04:15:24;;;;;;;30.13;24.08;;;;;;;;;;5090384;28;20482;-67
2023/06/29 04:17:49;;;;;;;31.65;23.05;;;;;;;;;;5086857;28;20047;-67
2023/06/29 04:20:15;;;;;;;24.70;20.33;;;;;;;;;;5091346;28;20032;-67
2023/06/29 04:22:40;;;;;;;28.83;21.98;;;;;;;;;;5091644;28;20024;-67
2023/06/29 04:25:06;;;;;;;24.47;20.83;;;;;;;;;;5091251;28;20114;-67
2023/06/29 04:27:33;;;;;;;31.63;24.65;;;;;;;;;;5091194;28;20343;-68
2023/06/29 04:29:58;;;;;;;26.60;23.63;;;;;;;;;;5091477;28;20024;-68
2023/06/29 04:32:23;;;;;;;29.45;24.23;;;;;;;;;;5091274;28;20031;-65
2023/06/29 04:34:49;;;;;;;26.57;22.07;;;;;;;;;;5089022;28;20065;-66
2023/06/29 04:37:14;;;;;;;24.10;21.52;;;;;;;;;;5086963;28;20784;-66
2023/06/29 04:39:40;;;;;;;26.88;22.40;;;;;;;;;;5091054;28;20028;-66
2023/06/29 04:42:10;;;;;;;30.03;22.90;;;;;;;;;;5081869;28;20539;-67
2023/06/29 04:44:35;;;;;;;33.85;22.20;;;;;;;;;;5087710;28;20780;-67
2023/06/29 04:47:01;;;;;;;26.53;21.60;;;;;;;;;;5081489;28;20071;-67
2023/06/29 04:49:32;;;;;;;29.00;22.83;;;;;;;;;;5087892;28;20277;-67
2023/06/29 04:52:00;;;;;;;30.38;21.73;;;;;;;;;;5090802;28;20020;-67
2023/06/29 04:54:26;;;;;;;23.58;20.90;;;;;;;;;;5091043;28;20024;-67
2023/06/29 04:56:52;;;;;;;26.55;22.15;;;;;;;;;;5091250;28;20122;-67
2023/06/29 04:59:17;;;;;;;26.70;20.70;;;;;;;;;;5091644;28;20020;-67
2023/06/29 05:01:42;;;;;;;24.95;22.40;;;;;;;;;;5090932;28;20032;-67
2023/06/29 05:04:08;;;;;;;30.00;23.03;;;;;;;;;;5091073;28;20374;-67
2023/06/29 05:06:33;;;;;;;28.83;24.27;;;;;;;;;;5090898;28;20266;-67
2023/06/29 05:08:58;;;;;;;26.30;21.83;;;;;;;;;;5091136;28;20286;-66
2023/06/29 05:11:23;;;;;;;23.97;21.10;;;;;;;;;;5090716;28;20470;-67
2023/06/29 05:13:48;;;;;;;27.88;23.38;;;;;;;;;;5090413;28;20349;-67
2023/06/29 05:16:14;;;;;;;27.40;23.27;;;;;;;;;;5089821;28;20036;-67
2023/06/29 05:18:39;;;;;;;33.75;22.88;;;;;;;;;;5086266;28;20262;-67
2023/06/29 05:21:05;;;;;;;24.90;21.45;;;;;;;;;;5090673;28;20032;-67
2023/06/29 05:23:30;;;;;;;31.13;25.38;;;;;;;;;;5077627;28;20455;-67
2023/06/29 05:25:55;;;;;;;32.00;24.88;;;;;;;;;;5091300;28;20026;-66
2023/06/29 05:28:21;;;;;;;30.53;23.10;;;;;;;;;;5093518;28;20028;-66
2023/06/29 05:30:46;;;;;;;27.53;24.10;;;;;;;;;;5093983;28;20288;-66
2023/06/29 05:33:11;;;;;;;33.27;24.43;;;;;;;;;;5093794;28;20297;-66
2023/06/29 05:35:36;;;;;;;41.10;25.47;;;;;;;;;;5094208;28;20273;-66
2023/06/29 05:38:02;;;;;;;36.75;24.45;;;;;;;;;;5094083;28;20624;-66
2023/06/29 05:40:27;;;;;;;38.10;24.95;;;;;;;;;;5087942;28;20063;-66
2023/06/29 05:42:52;;;;;;;35.05;23.45;;;;;;;;;;5079179;28;20038;-66
2023/06/29 05:45:18;;;;;;;35.70;22.88;;;;;;;;;;5092541;28;20119;-66
2023/06/29 05:47:43;;;;;;;36.77;21.83;;;;;;;;;;5093256;28;20111;-66
2023/06/29 05:50:08;;;;;;;25.40;21.52;;;;;;;;;;5093614;28;20656;-66
2023/06/29 05:52:34;;;;;;;24.75;21.40;;;;;;;;;;5093113;28;20028;-66
2023/06/29 05:54:59;;;;;;;30.60;21.55;;;;;;;;;;5093793;28;20027;-67
2023/06/29 05:57:24;;;;;;;27.77;20.48;;;;;;;;;;5092480;28;20038;-66
2023/06/29 05:59:50;;;;;;;31.02;21.25;;;;;;;;;;5093405;28;20031;-66
2023/06/29 06:02:15;;;;;;;27.63;21.47;;;;;;;;;;5092915;28;20027;-66
2023/06/29 06:04:40;;;;;;;25.52;20.67;;;;;;;;;;5092976;28;20273;-66
2023/06/29 06:07:06;;;;;;;26.65;20.98;;;;;;;;;;5093487;28;20371;-66
2023/06/29 06:09:31;;;;;;;31.77;20.23;;;;;;;;;;5093799;28;20111;-66
2023/06/29 06:11:56;;;;;;;27.47;21.67;;;;;;;;;;5090516;28;20270;-66
2023/06/29 06:14:21;;;;;;;30.73;18.93;;;;;;;;;;5092358;28;20744;-66
2023/06/29 06:16:47;;;;;;;28.50;21.70;;;;;;;;;;5092206;28;20759;-66
2023/06/29 06:19:12;;;;;;;33.60;19.67;;;;;;;;;;5092510;28;20031;-68
2023/06/29 06:21:37;;;;;;;29.47;19.77;;;;;;;;;;5093006;28;20285;-68
2023/06/29 06:24:02;;;;;;;21.30;17.52;;;;;;;;;;5092345;28;20685;-67
2023/06/29 06:26:28;;;;;;;30.83;18.60;;;;;;;;;;5092128;28;20019;-68
2023/06/29 06:28:53;;;;;;;31.58;20.58;;;;;;;;;;5091950;28;20035;-67
2023/06/29 06:31:19;;;;;;;22.47;17.97;;;;;;;;;;5092792;28;20386;-67
2023/06/29 06:33:45;;;;;;;25.90;18.52;;;;;;;;;;5093564;28;20258;-68
2023/06/29 06:36:11;;;;;;;26.08;18.80;;;;;;;;;;5092529;28;20027;-66
2023/06/29 06:38:37;;;;;;;24.77;19.30;;;;;;;;;;5090673;28;20024;-66
2023/06/29 06:41:02;;;;;;;26.70;18.23;;;;;;;;;;5092104;28;20384;-66
2023/06/29 06:43:27;;;;;;;30.13;19.73;;;;;;;;;;5091105;28;20278;-68
2023/06/29 06:45:52;;;;;;;25.03;17.73;;;;;;;;;;5091727;28;20302;-67
2023/06/29 06:48:18;;;;;;;26.00;18.42;;;;;;;;;;5092706;28;20293;-67
2023/06/29 06:50:44;;;;;;;22.48;17.92;;;;;;;;;;5091528;28;20061;-67
2023/06/29 06:53:09;;;;;;;22.40;18.40;;;;;;;;;;5092740;28;20486;-67
2023/06/29 06:55:35;;;;;;;20.75;17.30;;;;;;;;;;5091345;28;20036;-67
2023/06/29 06:58:00;;;;;;;24.00;18.73;;;;;;;;;;5092271;28;20045;-67
2023/06/29 07:00:26;;;;;;;22.05;17.88;;;;;;;;;;5092488;28;20020;-67
2023/06/29 07:02:52;;;;;;;23.92;18.23;;;;;;;;;;5092507;28;20116;-67
2023/06/29 07:05:17;;;;;;;21.40;16.48;;;;;;;;;;5092558;28;20099;-67
2023/06/29 07:07:43;;;;;;;28.25;17.95;;;;;;;;;;5091341;28;20110;-67
2023/06/29 07:10:09;;;;;;;26.77;19.08;;;;;;;;;;5091459;28;20020;-67
2023/06/29 07:12:34;;;;;;;29.85;18.13;;;;;;;;;;5091582;28;20031;-67
2023/06/29 07:14:59;;;;;;;23.20;19.02;;;;;;;;;;5091639;28;20031;-67
2023/06/29 07:17:26;;;;;;;24.55;18.25;;;;;;;;;;5091063;28;20409;-66
2023/06/29 07:19:51;;;;;;;30.50;19.25;;;;;;;;;;5092266;28;20111;-68
2023/06/29 07:22:17;;;;;;;33.77;21.93;;;;;;;;;;5092443;28;20106;-67
2023/06/29 07:24:42;;;;;;;27.67;20.85;;;;;;;;;;5078862;28;20267;-66
2023/06/29 07:27:07;;;;;;;28.10;20.37;;;;;;;;;;5091958;28;20040;-66
2023/06/29 07:29:33;;;;;;;28.50;19.20;;;;;;;;;;5091557;28;20632;-67
2023/06/29 07:31:58;;;;;;;21.15;18.75;;;;;;;;;;5082566;28;20327;-67
2023/06/29 07:34:24;;;;;;;29.20;19.65;;;;;;;;;;5092500;28;20023;-67
2023/06/29 07:36:49;;;;;;;24.75;19.58;;;;;;;;;;5091375;28;20023;-68
2023/06/29 07:39:14;;;;;;;35.63;20.00;;;;;;;;;;5092111;28;20020;-68
2023/06/29 07:41:40;;;;;;;23.13;18.58;;;;;;;;;;5086595;28;20423;-68
2023/06/29 07:44:05;;;;;;;27.33;18.20;;;;;;;;;;5091430;28;20031;-68
2023/06/29 07:46:31;;;;;;;25.30;17.38;;;;;;;;;;5091293;28;20274;-68
2023/06/29 07:48:58;;;;;;;25.20;18.77;;;;;;;;;;5091185;28;20107;-68
2023/06/29 07:51:24;;;;;;;27.80;19.73;;;;;;;;;;5091109;28;20466;-68
2023/06/29 07:53:50;;;;;;;23.77;17.47;;;;;;;;;;5091608;28;20057;-68
2023/06/29 07:56:15;;;;;;;27.35;17.40;;;;;;;;;;5089176;28;21067;-68
2023/06/29 07:58:40;;;;;;;24.15;18.00;;;;;;;;;;5085546;28;20031;-67
2023/06/29 08:01:06;;;;;;;23.15;18.13;;;;;;;;;;5089991;28;20020;-68
2023/06/29 08:03:32;;;;;;;30.17;19.83;;;;;;;;;;5091262;28;20045;-68
2023/06/29 08:05:57;;;;;;;26.27;20.23;;;;;;;;;;5091140;28;20063;-68
2023/06/29 08:08:26;;;;;;;22.70;17.50;;;;;;;;;;5091440;28;20036;-67
2023/06/29 08:10:52;;;;;;;26.55;18.02;;;;;;;;;;5091964;28;20058;-67
2023/06/29 08:13:17;;;;;;;21.90;17.60;;;;;;;;;;5091638;28;20420;-67
2023/06/29 08:15:43;;;;;;;24.10;16.23;;;;;;;;;;5091638;28;20278;-66
2023/06/29 08:18:08;;;;;;;25.83;17.08;;;;;;;;;;5090393;28;20494;-67
2023/06/29 08:20:33;;;;;;;26.60;17.88;;;;;;;;;;5091362;28;20035;-66
2023/06/29 08:22:59;;;;;;;25.30;17.33;;;;;;;;;;5090986;28;20019;-67
2023/06/29 08:25:24;;;;;;;23.85;17.55;;;;;;;;;;5090823;28;20300;-67
2023/06/29 08:27:49;;;;;;;26.33;16.67;;;;;;;;;;5090020;28;20035;-69
2023/06/29 08:30:15;;;;;;;24.77;15.60;;;;;;;;;;5088902;28;20035;-68
2023/06/29 08:32:42;;;;;;;21.02;15.15;;;;;;;;;;5091381;28;20490;-68
2023/06/29 08:35:08;;;;;;;17.27;14.55;;;;;;;;;;5091121;28;20024;-68
2023/06/29 08:37:33;;;;;;;23.05;16.27;;;;;;;;;;5090539;28;20054;-68
2023/06/29 08:39:58;;;;;;;26.23;17.83;;;;;;;;;;5090873;28;20387;-67
2023/06/29 08:42:24;;;;;;;25.23;15.18;;;;;;;;;;5082299;28;20266;-67
2023/06/29 08:44:49;;;;;;;19.30;15.52;;;;;;;;;;5090816;28;20016;-67
2023/06/29 08:47:16;;;;;;;20.85;14.43;;;;;;;;;;5091232;28;20028;-67
2023/06/29 08:49:42;;;;;;;17.75;13.95;;;;;;;;;;5090735;28;20024;-67
2023/06/29 08:52:10;;;;;;;17.05;13.02;;;;;;;;;;5090708;28;20036;-66
2023/06/29 08:54:35;;;;;;;19.80;14.75;;;;;;;;;;5090187;28;20028;-66
2023/06/29 08:57:01;;;;;;;15.63;13.13;;;;;;;;;;5085451;28;20028;-68
2023/06/29 08:59:27;;;;;;;18.50;14.57;;;;;;;;;;5089821;28;20016;-68
2023/06/29 09:01:54;;;;;;;22.75;14.30;;;;;;;;;;5094044;28;20366;-67
2023/06/29 09:04:19;;;;;;;16.10;13.00;;;;;;;;;;5094553;28;20024;-67
2023/06/29 09:06:44;;;;;;;25.40;12.43;;;;;;;;;;5093050;28;20386;-68
2023/06/29 09:09:09;;;;;;;16.67;12.60;;;;;;;;;;5094932;28;20354;-68
2023/06/29 09:11:35;;;;;;;19.73;13.07;;;;;;;;;;5094488;28;20062;-67
2023/06/29 09:14:09;;;;;;;17.75;14.00;;;;;;;;;;5093932;28;20628;-67
2023/06/29 09:16:35;;;;;;;21.10;13.50;;;;;;;;;;5093539;28;20128;-67
2023/06/29 09:19:02;;;;;;;21.50;14.52;;;;;;;;;;5093274;28;20165;-67
2023/06/29 09:21:29;;;;;;;21.98;14.23;;;;;;;;;;5092677;28;20474;-67
2023/06/29 09:24:00;;;;;;;18.42;14.75;;;;;;;;;;5093826;28;20049;-67
2023/06/29 09:26:28;;;;;;;21.02;14.57;;;;;;;;;;5093985;28;20039;-66
2023/06/29 09:29:00;;;;;;;16.10;13.38;;;;;;;;;;5093530;28;20537;-67
2023/06/29 09:31:32;;;;;;;28.00;11.60;;;;;;;;;;5093778;28;20076;-67
2023/06/29 09:34:18;;;;;;;17.00;11.55;;;;;;;;;;5093663;28;20016;-67
2023/06/29 09:36:43;;;;;;;13.95;11.85;;;;;;;;;;5092951;28;20120;-67
2023/06/29 09:39:09;;;;;;;17.27;12.80;;;;;;;;;;5092771;28;20098;-67
2023/06/29 09:41:44;;;;;;;17.77;12.88;;;;;;;;;;5088335;28;20020;-66
2023/06/29 09:44:10;;;;;;;21.35;12.80;;;;;;;;;;5088070;28;20028;-67
2023/06/29 09:46:40;;;;;;;14.52;11.27;;;;;;;;;;5093452;28;20035;-67
2023/06/29 09:49:06;;;;;;;13.98;11.38;;;;;;;;;;5093402;28;20032;-67
2023/06/29 09:51:32;;;;;;;17.00;11.90;;;;;;;;;;5090840;28;20035;-67
2023/06/29 09:54:00;;;;;;;18.27;13.47;;;;;;;;;;5093309;28;20021;-66
2023/06/29 09:56:26;;;;;;;18.52;13.45;;;;;;;;;;5093565;28;20415;-67
2023/06/29 09:58:52;;;;;;;15.95;13.90;;;;;;;;;;5093229;28;20551;-68
2023/06/29 10:01:17;;;;;;;16.70;13.52;;;;;;;;;;5092794;28;20114;-67
2023/06/29 10:03:43;;;;;;;17.27;12.73;;;;;;;;;;5093139;28;20122;-67
2023/06/29 10:06:11;;;;;;;16.40;12.77;;;;;;;;;;5093585;28;20651;-67
2023/06/29 10:08:38;;;;;;;16.83;12.20;;;;;;;;;;5093139;28;20031;-67
2023/06/29 10:11:05;;;;;;;14.95;11.73;;;;;;;;;;5093095;28;20081;-68
2023/06/29 10:13:36;;;;;;;15.40;11.13;;;;;;;;;;5091862;28;20093;-68
2023/06/29 10:16:02;;;;;;;15.57;12.10;;;;;;;;;;5093274;28;20432;-68
2023/06/29 10:18:29;;;;;;;15.30;11.13;;;;;;;;;;5091796;28;20020;-67
2023/06/29 10:20:55;;;;;;;20.98;12.65;;;;;;;;;;5092878;28;20012;-67
2023/06/29 10:23:22;;;;;;;17.70;13.63;;;;;;;;;;5092529;28;20020;-68
2023/06/29 10:25:48;;;;;;;20.35;13.48;;;;;;;;;;5092639;28;20499;-67
2023/06/29 10:28:14;;;;;;;16.60;12.57;;;;;;;;;;5092277;28;20020;-68
2023/06/29 10:30:44;;;;;;;21.00;14.82;;;;;;;;;;5093796;28;20120;-67
2023/06/29 10:33:09;;;;;;;20.60;15.23;;;;;;;;;;5093372;28;20039;-68
2023/06/29 10:35:35;;;;;;;19.70;13.90;;;;;;;;;;5093424;28;20423;-67
2023/06/29 10:38:07;;;;;;;24.45;15.50;;;;;;;;;;5092169;28;20046;-67
2023/06/29 10:40:34;;;;;;;19.17;13.20;;;;;;;;;;5092392;28;20032;-67
2023/06/29 10:42:59;;;;;;;16.05;11.55;;;;;;;;;;5092333;28;20032;-68
2023/06/29 10:45:24;;;;;;;16.30;12.25;;;;;;;;;;5093189;28;20035;-67
2023/06/29 10:47:56;;;;;;;15.90;12.18;;;;;;;;;;5087177;28;20036;-67
2023/06/29 10:50:38;;;;;;;16.52;13.18;;;;;;;;;;5092281;28;20024;-67
2023/06/29 10:53:05;;;;;;;17.55;14.23;;;;;;;;;;5090646;28;20509;-68
2023/06/29 10:55:49;;;;;;;19.50;14.95;;;;;;;;;;5092025;28;20080;-67
2023/06/29 10:58:22;;;;;;;18.00;13.43;;;;;;;;;;5081311;28;20056;-67
2023/06/29 11:00:48;;;;;;;18.48;12.85;;;;;;;;;;5091847;28;20020;-67
2023/06/29 11:03:13;;;;;;;18.88;14.10;;;;;;;;;;5092606;28;20020;-68
2023/06/29 11:05:39;;;;;;;19.83;14.75;;;;;;;;;;5088972;28;20017;-68
2023/06/29 11:08:05;;;;;;;22.90;16.42;;;;;;;;;;5077964;28;20033;-68
2023/06/29 11:10:30;;;;;;;20.20;15.70;;;;;;;;;;5091874;28;20020;-68
2023/06/29 11:12:56;;;;;;;23.17;16.17;;;;;;;;;;5082973;28;20470;-68
2023/06/29 11:15:22;;;;;;;24.42;15.48;;;;;;;;;;5091454;28;20029;-68
2023/06/29 11:17:51;;;;;;;26.33;15.02;;;;;;;;;;5092752;28;20056;-68
2023/06/29 11:20:17;;;;;;;25.10;15.32;;;;;;;;;;5091624;28;20111;-68
2023/06/29 11:22:43;;;;;;;23.42;14.65;;;;;;;;;;5091183;28;20552;-67
2023/06/29 11:25:10;;;;;;;18.80;14.77;;;;;;;;;;5090996;28;20024;-67
2023/06/29 11:27:35;;;;;;;22.42;15.07;;;;;;;;;;5092172;28;20077;-68
2023/06/29 11:30:04;;;;;;;21.98;14.90;;;;;;;;;;5091580;28;20035;-68
2023/06/29 11:32:30;;;;;;;19.33;15.65;;;;;;;;;;5092054;28;20016;-68
2023/06/29 11:34:59;;;;;;;17.70;15.23;;;;;;;;;;5091301;28;20051;-68
2023/06/29 11:37:25;;;;;;;17.63;15.73;;;;;;;;;;5091896;28;20024;-68
2023/06/29 11:39:50;;;;;;;19.30;14.90;;;;;;;;;;5092025;28;20073;-68
2023/06/29 11:42:21;;;;;;;20.93;16.43;;;;;;;;;;5085843;28;20103;-68
2023/06/29 11:44:47;;;;;;;39.17;17.60;;;;;;;;;;5090029;28;20526;-68
2023/06/29 11:47:13;;;;;;;21.13;17.45;;;;;;;;;;5091759;28;20042;-68
2023/06/29 11:49:38;;;;;;;22.20;17.95;;;;;;;;;;5091091;28;20470;-68
2023/06/29 11:52:04;;;;;;;23.85;18.45;;;;;;;;;;5091850;28;20467;-68
2023/06/29 11:54:32;;;;;;;23.00;18.40;;;;;;;;;;5089961;28;20400;-67
2023/06/29 11:56:57;;;;;;;22.85;18.50;;;;;;;;;;5091704;28;20062;-68
2023/06/29 11:59:22;;;;;;;28.90;20.10;;;;;;;;;;5091722;28;20024;-68
2023/06/29 12:01:47;;;;;;;24.58;19.23;;;;;;;;;;5092183;28;20289;-68
2023/06/29 12:04:13;;;;;;;25.47;19.63;;;;;;;;;;5091079;28;20024;-67
2023/06/29 12:06:50;;;;;;;23.20;18.42;;;;;;;;;;5091484;28;20760;-67
2023/06/29 12:09:16;;;;;;;25.60;19.33;;;;;;;;;;5083057;28;20028;-67
2023/06/29 12:11:41;;;;;;;21.77;18.42;;;;;;;;;;5091976;28;20031;-68
2023/06/29 12:14:08;;;;;;;23.00;18.07;;;;;;;;;;5091041;28;20449;-68
2023/06/29 12:16:36;;;;;;;22.27;16.88;;;;;;;;;;5090985;28;20285;-68
2023/06/29 12:19:08;;;;;;;22.48;19.48;;;;;;;;;;5091272;28;20017;-67
2023/06/29 12:21:34;;;;;;;24.90;19.45;;;;;;;;;;5088514;28;20032;-67
2023/06/29 12:24:01;;;;;;;24.27;20.08;;;;;;;;;;5090989;28;20020;-68
2023/06/29 12:26:26;;;;;;;28.23;18.65;;;;;;;;;;5091167;28;20020;-67
2023/06/29 12:28:51;;;;;;;22.23;15.77;;;;;;;;;;5091137;28;20123;-67
2023/06/29 12:31:23;;;;;;;17.13;15.27;;;;;;;;;;5085047;28;20305;-67
2023/06/29 12:33:48;;;;;;;18.90;15.73;;;;;;;;;;5090994;28;20352;-67
2023/06/29 12:36:14;;;;;;;21.90;15.60;;;;;;;;;;5088971;28;20127;-67
2023/06/29 12:38:39;;;;;;;22.53;15.20;;;;;;;;;;5085315;28;20286;-68
2023/06/29 12:41:04;;;;;;;19.27;14.13;;;;;;;;;;5089596;28;20610;-68
2023/06/29 12:43:30;;;;;;;21.13;14.65;;;;;;;;;;5078431;28;20306;-68
2023/06/29 12:45:55;;;;;;;21.33;15.90;;;;;;;;;;5090894;28;20485;-67
2023/06/29 12:48:21;;;;;;;21.48;14.65;;;;;;;;;;5089913;28;20294;-68
2023/06/29 12:50:46;;;;;;;19.83;14.87;;;;;;;;;;5090962;28;20031;-68
2023/06/29 12:53:11;;;;;;;24.80;18.23;;;;;;;;;;5090570;28;20660;-67
2023/06/29 12:55:36;;;;;;;21.17;15.88;;;;;;;;;;5091045;28;20663;-67
2023/06/29 12:58:02;;;;;;;22.83;17.67;;;;;;;;;;5085522;28;20406;-68
2023/06/29 13:00:27;;;;;;;26.30;18.60;;;;;;;;;;5089159;28;20270;-67
2023/06/29 13:02:52;;;;;;;26.23;20.47;;;;;;;;;;5085832;28;20036;-67
2023/06/29 13:05:18;;;;;;;24.00;18.25;;;;;;;;;;5089526;28;20288;-67
2023/06/29 13:07:43;;;;;;;27.73;19.27;;;;;;;;;;5085636;28;20090;-67
2023/06/29 13:10:11;;;;;;;23.83;18.20;;;;;;;;;;5090843;28;20282;-67
2023/06/29 13:12:39;;;;;;;27.05;18.58;;;;;;;;;;5072464;28;20020;-68
2023/06/29 13:15:05;;;;;;;30.85;19.08;;;;;;;;;;5089324;28;20800;-68
2023/06/29 13:17:30;;;;;;;28.30;20.58;;;;;;;;;;5086472;28;20024;-70
2023/06/29 13:19:55;;;;;;;30.40;19.07;;;;;;;;;;5089552;28;20069;-67
2023/06/29 13:22:22;;;;;;;22.03;18.33;;;;;;;;;;5090567;28;20274;-67
2023/06/29 13:24:48;;;;;;;28.58;20.58;;;;;;;;;;5090476;28;20297;-67
2023/06/29 13:27:13;;;;;;;26.90;19.85;;;;;;;;;;5091028;28;20020;-67
2023/06/29 13:29:39;;;;;;;32.58;20.77;;;;;;;;;;5089849;28;20055;-67
2023/06/29 13:32:04;;;;;;;25.27;19.67;;;;;;;;;;5089450;28;20068;-67
2023/06/29 13:34:30;;;;;;;28.00;20.40;;;;;;;;;;5089548;28;20028;-67
2023/06/29 13:36:56;;;;;;;28.42;21.35;;;;;;;;;;5090610;28;20027;-66
2023/06/29 13:39:21;;;;;;;29.25;22.17;;;;;;;;;;5090498;28;20020;-66
2023/06/29 13:41:48;;;;;;;27.47;21.83;;;;;;;;;;5082506;28;20125;-67
2023/06/29 13:44:13;;;;;;;28.50;22.60;;;;;;;;;;5066830;28;20270;-67
2023/06/29 13:46:39;;;;;;;28.42;22.70;;;;;;;;;;5091321;28;20023;-66
2023/06/29 13:49:04;;;;;;;28.27;22.15;;;;;;;;;;5092963;28;20028;-66
2023/06/29 13:51:31;;;;;;;27.77;20.20;;;;;;;;;;5088631;28;20032;-66
2023/06/29 13:53:56;;;;;;;25.35;21.27;;;;;;;;;;5093447;28;20020;-67
2023/06/29 13:56:22;;;;;;;26.83;19.90;;;;;;;;;;5093051;28;20038;-67
2023/06/29 13:58:48;;;;;;;30.58;21.77;;;;;;;;;;5093122;28;20028;-66
2023/06/29 14:01:13;;;;;;;24.05;21.13;;;;;;;;;;5093488;28;20397;-66
2023/06/29 14:03:39;;;;;;;25.17;21.00;;;;;;;;;;5093124;28;20055;-66
2023/06/29 14:06:04;;;;;;;30.70;20.77;;;;;;;;;;5090290;28;20024;-67
2023/06/29 14:08:29;;;;;;;27.10;21.77;;;;;;;;;;5093738;28;20292;-67
2023/06/29 14:10:54;;;;;;;29.00;21.60;;;;;;;;;;5093373;28;20306;-67